Time;durP1;ratioP1;P1;durP2;ratioP2;P2;SDS_P1;SDS_P2;PMS_P1;PMS_P2;Temp;Humidity;BMP_temperature;BMP_pressure;BME280_temperature;BME280_humidity;BME280_pressure;Samples;Min_cycle;Max_cycle;Signal;HPM_P1;HPM_P2
2021/05/29 00:02:11;;;;;;;;;;;13.10;94.30;;;;;;5090532;28;19916;-87
2021/05/29 00:04:37;;;;;;;;;;;13.10;94.40;;;;;;5091894;28;19909;-87
2021/05/29 00:07:03;;;;;;;;;;;13.10;94.50;;;;;;5091497;28;20011;-87
2021/05/29 00:09:28;;;;;;;;;;;13.10;94.60;;;;;;5091156;28;19915;-87
2021/05/29 00:11:54;;;;;;;;;;;13.00;94.70;;;;;;5091358;28;20272;-87
2021/05/29 00:14:19;;;;;;;;;;;13.00;94.80;;;;;;5091724;28;19912;-87
2021/05/29 00:16:45;;;;;;;;;;;12.90;95.00;;;;;;5091431;28;19923;-87
2021/05/29 00:19:10;;;;;;;;;;;12.80;95.20;;;;;;5090820;28;19915;-87
2021/05/29 00:21:36;;;;;;;;;;;12.80;95.40;;;;;;5091272;28;19959;-87
2021/05/29 00:24:01;;;;;;;;;;;12.70;95.40;;;;;;5091235;28;19912;-87
2021/05/29 00:26:27;;;;;;;;;;;12.70;95.60;;;;;;5091310;28;19962;-87
2021/05/29 00:28:53;;;;;;;;;;;12.70;95.60;;;;;;5092294;28;19912;-86
2021/05/29 00:31:21;;;;;;;;;;;12.70;95.50;;;;;;5091101;28;20403;-87
2021/05/29 00:33:47;;;;;;;;;;;12.80;95.50;;;;;;5091252;28;19974;-87
2021/05/29 00:36:12;;;;;;;;;;;12.70;95.60;;;;;;5090965;28;20396;-87
2021/05/29 00:38:38;;;;;;;;;;;12.80;95.60;;;;;;5091018;28;19916;-87
2021/05/29 00:41:08;;;;;;;;;;;12.70;95.60;;;;;;5090632;28;19958;-86
2021/05/29 00:43:37;;;;;;;;;;;12.70;96.10;;;;;;5092289;28;19916;-87
2021/05/29 00:46:03;;;;;;;;;;;12.70;95.80;;;;;;5091093;28;19939;-87
2021/05/29 00:48:29;;;;;;;;;;;12.60;95.90;;;;;;5090818;28;20390;-87
2021/05/29 00:51:00;;;;;;;;;;;12.50;95.90;;;;;;5090687;28;19955;-87
2021/05/29 00:53:27;;;;;;;;;;;12.60;96.00;;;;;;5091168;28;20011;-87
2021/05/29 00:55:53;;;;;;;;;;;12.60;96.00;;;;;;5091123;28;20434;-87
2021/05/29 00:58:20;;;;;;;;;;;12.50;96.00;;;;;;5090842;28;19908;-87
2021/05/29 01:00:45;;;;;;;;;;;12.50;96.10;;;;;;5090646;28;19912;-87
2021/05/29 01:03:11;;;;;;;;;;;12.50;96.20;;;;;;5090849;28;20016;-87
2021/05/29 01:05:37;;;;;;;;;;;12.60;96.30;;;;;;5090999;28;19912;-87
2021/05/29 01:08:02;;;;;;;;;;;12.50;96.40;;;;;;5091014;28;20276;-87
2021/05/29 01:10:28;;;;;;;;;;;12.40;96.40;;;;;;5090315;28;19914;-87
2021/05/29 01:12:55;;;;;;;;;;;12.50;96.50;;;;;;5092062;28;19934;-87
2021/05/29 01:15:21;;;;;;;;;;;12.50;96.40;;;;;;5094532;28;19908;-87
2021/05/29 01:17:46;;;;;;;;;;;12.40;96.50;;;;;;5094335;28;19919;-87
2021/05/29 01:20:12;;;;;;;;;;;12.40;96.30;;;;;;5094378;28;19908;-86
2021/05/29 01:22:38;;;;;;;;;;;12.40;96.50;;;;;;5094420;28;19915;-87
2021/05/29 01:25:06;;;;;;;;;;;12.30;96.50;;;;;;5095899;28;19978;-87
2021/05/29 01:27:32;;;;;;;;;;;12.30;96.70;;;;;;5094214;28;19955;-87
2021/05/29 01:29:58;;;;;;;;;;;12.30;96.80;;;;;;5093716;28;19935;-86
2021/05/29 01:32:32;;;;;;;;;;;12.20;96.90;;;;;;5094007;28;19908;-87
2021/05/29 01:34:59;;;;;;;;;;;12.20;96.90;;;;;;5094057;28;20324;-87
2021/05/29 01:37:24;;;;;;;;;;;12.20;96.90;;;;;;5095029;28;19934;-87
2021/05/29 01:39:52;;;;;;;;;;;12.10;97.10;;;;;;5093647;28;19912;-87
2021/05/29 01:42:18;;;;;;;;;;;12.10;97.20;;;;;;5095245;28;19908;-87
2021/05/29 01:44:44;;;;;;;;;;;12.10;97.40;;;;;;5093788;28;19908;-86
2021/05/29 01:47:09;;;;;;;;;;;12.10;97.30;;;;;;5095072;28;19919;-87
2021/05/29 01:49:35;;;;;;;;;;;12.10;97.30;;;;;;5093304;28;19912;-87
2021/05/29 01:52:01;;;;;;;;;;;12.20;97.30;;;;;;5093692;28;19914;-87
2021/05/29 01:54:27;;;;;;;;;;;12.20;97.10;;;;;;5094950;28;19995;-87
2021/05/29 01:56:54;;;;;;;;;;;12.20;97.10;;;;;;5093682;28;19912;-87
2021/05/29 01:59:19;;;;;;;;;;;12.10;97.10;;;;;;5093065;28;19909;-87
2021/05/29 02:01:45;;;;;;;;;;;12.10;97.20;;;;;;5093635;28;19931;-87
2021/05/29 02:04:10;;;;;;;;;;;12.20;97.00;;;;;;5093567;28;19912;-87
2021/05/29 02:06:36;;;;;;;;;;;12.20;97.10;;;;;;5093567;28;19908;-86
2021/05/29 02:09:01;;;;;;;;;;;12.20;97.10;;;;;;5094075;28;20268;-87
2021/05/29 02:11:27;;;;;;;;;;;12.10;97.10;;;;;;5094500;28;20011;-87
2021/05/29 02:13:52;;;;;;;;;;;12.10;97.20;;;;;;5093360;28;19912;-87
2021/05/29 02:16:18;;;;;;;;;;;12.10;97.20;;;;;;5094380;28;19959;-87
2021/05/29 02:18:43;;;;;;;;;;;12.10;97.20;;;;;;5092993;28;19908;-87
2021/05/29 02:21:10;;;;;;;;;;;12.10;97.30;;;;;;5093941;28;19908;-87
2021/05/29 02:23:37;;;;;;;;;;;12.10;97.20;;;;;;5092826;28;19919;-87
2021/05/29 02:26:07;;;;;;;;;;;12.10;97.20;;;;;;5092475;28;19922;-87
2021/05/29 02:28:34;;;;;;;;;;;12.10;97.20;;;;;;5094237;28;19909;-87
2021/05/29 02:31:00;;;;;;;;;;;12.00;97.40;;;;;;5092659;28;20254;-87
2021/05/29 02:33:26;;;;;;;;;;;12.00;97.30;;;;;;5094053;28;20372;-86
2021/05/29 02:35:52;;;;;;;;;;;11.90;97.40;;;;;;5093215;28;19931;-86
2021/05/29 02:38:17;;;;;;;;;;;11.90;97.50;;;;;;5092781;28;20360;-87
2021/05/29 02:40:43;;;;;;;;;;;11.90;97.50;;;;;;5091670;28;19915;-86
2021/05/29 02:43:09;;;;;;;;;;;11.90;97.50;;;;;;5092708;28;19908;-87
2021/05/29 02:45:34;;;;;;;;;;;11.90;97.50;;;;;;5093863;28;19961;-87
2021/05/29 02:48:00;;;;;;;;;;;12.00;97.40;;;;;;5092550;28;20426;-87
2021/05/29 02:50:26;;;;;;;;;;;11.90;97.30;;;;;;5092617;28;19934;-87
2021/05/29 02:52:52;;;;;;;;;;;11.90;97.50;;;;;;5094052;28;19950;-86
2021/05/29 02:55:23;;;;;;;;;;;11.90;97.50;;;;;;5093272;28;19914;-87
2021/05/29 02:57:53;;;;;;;;;;;11.80;97.60;;;;;;5093407;28;20341;-86
2021/05/29 03:00:19;;;;;;;;;;;11.80;97.40;;;;;;5092747;28;20420;-87
2021/05/29 03:02:44;;;;;;;;;;;11.90;97.50;;;;;;5094657;28;20357;-87
2021/05/29 03:05:10;;;;;;;;;;;11.80;97.60;;;;;;5093360;28;19916;-87
2021/05/29 03:07:36;;;;;;;;;;;11.70;97.70;;;;;;5094863;28;19908;-87
2021/05/29 03:10:03;;;;;;;;;;;11.70;97.90;;;;;;5094146;28;19908;-87
2021/05/29 03:12:28;;;;;;;;;;;11.70;97.90;;;;;;5094566;28;19915;-87
2021/05/29 03:14:54;;;;;;;;;;;11.70;97.90;;;;;;5093797;28;19908;-86
2021/05/29 03:17:19;;;;;;;;;;;11.70;97.90;;;;;;5092010;28;19912;-87
2021/05/29 03:19:45;;;;;;;;;;;11.70;97.90;;;;;;5093045;28;19912;-87
2021/05/29 03:22:11;;;;;;;;;;;11.70;97.90;;;;;;5093309;28;19915;-87
2021/05/29 03:24:36;;;;;;;;;;;11.70;97.80;;;;;;5092132;28;19908;-87
2021/05/29 03:27:02;;;;;;;;;;;11.70;97.90;;;;;;5091860;28;20007;-87
2021/05/29 03:29:27;;;;;;;;;;;11.70;97.90;;;;;;5091532;28;20349;-87
2021/05/29 03:31:53;;;;;;;;;;;11.70;97.90;;;;;;5091651;28;19915;-87
2021/05/29 03:34:18;;;;;;;;;;;11.60;98.10;;;;;;5091889;28;19961;-87
2021/05/29 03:36:44;;;;;;;;;;;11.60;97.90;;;;;;5093090;28;19912;-87
2021/05/29 03:39:09;;;;;;;;;;;11.60;98.00;;;;;;5091258;28;19970;-87
2021/05/29 03:41:35;;;;;;;;;;;11.60;98.00;;;;;;5091610;28;19946;-87
2021/05/29 03:44:01;;;;;;;;;;;11.50;98.00;;;;;;5091791;28;19912;-86
2021/05/29 03:46:27;;;;;;;;;;;11.60;98.00;;;;;;5091647;28;19935;-86
2021/05/29 03:48:53;;;;;;;;;;;11.50;98.00;;;;;;5091320;28;19943;-87
2021/05/29 03:51:18;;;;;;;;;;;11.60;97.90;;;;;;5091593;28;19970;-87
2021/05/29 03:53:44;;;;;;;;;;;11.50;98.10;;;;;;5091643;28;19908;-86
2021/05/29 03:56:09;;;;;;;;;;;11.60;97.90;;;;;;5091427;28;19908;-87
2021/05/29 03:58:35;;;;;;;;;;;11.60;98.00;;;;;;5092923;28;19987;-87
2021/05/29 04:01:00;;;;;;;;;;;11.50;98.10;;;;;;5091057;28;19916;-87
2021/05/29 04:03:26;;;;;;;;;;;11.50;98.10;;;;;;5091530;28;20376;-87
2021/05/29 04:05:52;;;;;;;;;;;11.50;98.20;;;;;;5091444;28;19908;-87
2021/05/29 04:08:17;;;;;;;;;;;11.50;98.30;;;;;;5091349;28;19908;-87
2021/05/29 04:10:43;;;;;;;;;;;11.60;98.30;;;;;;5090944;28;19931;-87
2021/05/29 04:13:09;;;;;;;;;;;11.60;98.00;;;;;;5091302;28;19908;-87
2021/05/29 04:15:34;;;;;;;;;;;11.60;98.00;;;;;;5091379;28;19908;-87
2021/05/29 04:18:00;;;;;;;;;;;11.70;97.90;;;;;;5091137;28;19920;-87
2021/05/29 04:20:26;;;;;;;;;;;11.70;97.90;;;;;;5091183;28;19918;-87
2021/05/29 04:22:52;;;;;;;;;;;11.70;98.00;;;;;;5091542;28;20258;-87
2021/05/29 04:25:22;;;;;;;;;;;11.80;97.90;;;;;;5091096;28;19915;-87
2021/05/29 04:27:48;;;;;;;;;;;11.80;97.90;;;;;;5091161;28;20010;-87
2021/05/29 04:30:18;;;;;;;;;;;11.80;98.10;;;;;;5090981;28;19926;-87
2021/05/29 04:32:44;;;;;;;;;;;11.80;98.00;;;;;;5090816;28;20372;-87
2021/05/29 04:35:10;;;;;;;;;;;11.70;98.10;;;;;;5091108;28;19983;-87
2021/05/29 04:37:37;;;;;;;;;;;11.80;98.20;;;;;;5092024;28;19924;-86
2021/05/29 04:40:03;;;;;;;;;;;11.90;98.10;;;;;;5090835;28;19919;-87
2021/05/29 04:42:30;;;;;;;;;;;12.00;97.80;;;;;;5092247;28;19912;-87
2021/05/29 04:44:55;;;;;;;;;;;11.90;98.10;;;;;;5090995;28;20010;-87
2021/05/29 04:47:21;;;;;;;;;;;12.00;97.70;;;;;;5092718;28;19939;-87
2021/05/29 04:49:46;;;;;;;;;;;12.00;97.90;;;;;;5094526;28;20362;-87
2021/05/29 04:52:12;;;;;;;;;;;12.00;97.80;;;;;;5094689;28;19998;-87
2021/05/29 04:54:39;;;;;;;;;;;12.10;97.60;;;;;;5094859;28;19962;-87
2021/05/29 04:57:05;;;;;;;;;;;12.20;97.70;;;;;;5094688;28;19912;-87
2021/05/29 04:59:31;;;;;;;;;;;12.20;97.40;;;;;;5094116;28;19908;-87
2021/05/29 05:01:56;;;;;;;;;;;12.20;97.50;;;;;;5094542;28;19915;-86
2021/05/29 05:04:22;;;;;;;;;;;12.10;97.40;;;;;;5095867;28;19908;-87
2021/05/29 05:06:47;;;;;;;;;;;12.20;97.50;;;;;;5096124;28;20366;-87
2021/05/29 05:09:13;;;;;;;;;;;12.20;97.30;;;;;;5094076;28;19937;-87
2021/05/29 05:11:38;;;;;;;;;;;12.30;97.60;;;;;;5094485;28;19909;-86
2021/05/29 05:14:04;;;;;;;;;;;12.30;97.30;;;;;;5094660;28;19961;-87
2021/05/29 05:16:30;;;;;;;;;;;12.30;97.20;;;;;;5094425;28;19979;-86
2021/05/29 05:18:55;;;;;;;;;;;12.30;97.10;;;;;;5095258;28;19919;-87
2021/05/29 05:21:21;;;;;;;;;;;12.40;97.00;;;;;;5094293;28;19915;-86
2021/05/29 05:23:50;;;;;;;;;;;12.40;97.00;;;;;;5094381;28;19915;-87
2021/05/29 05:26:16;;;;;;;;;;;12.40;97.00;;;;;;5095591;28;19912;-87
2021/05/29 05:28:41;;;;;;;;;;;12.40;96.80;;;;;;5094230;28;19930;-87
2021/05/29 05:31:07;;;;;;;;;;;12.40;96.70;;;;;;5093429;28;19908;-86
2021/05/29 05:33:38;;;;;;;;;;;12.50;96.70;;;;;;5095651;28;19969;-86
2021/05/29 05:36:06;;;;;;;;;;;12.50;96.60;;;;;;5095371;28;19962;-87
2021/05/29 05:38:32;;;;;;;;;;;12.60;96.50;;;;;;5116265;22;19971;-83
2021/05/29 05:40:57;;;;;;;;;;;12.60;96.60;;;;;;5114426;28;19923;-83
2021/05/29 05:43:23;;;;;;;;;;;12.60;96.50;;;;;;5097390;28;19938;-83
2021/05/29 05:45:49;;;;;;;;;;;12.60;96.30;;;;;;5098620;28;19911;-83
2021/05/29 05:48:14;;;;;;;;;;;12.60;96.20;;;;;;5097209;28;19923;-83
2021/05/29 05:50:52;;;;;;;;;;;12.70;96.20;;;;;;5096688;28;19908;-83
2021/05/29 05:53:18;;;;;;;;;;;12.70;96.20;;;;;;5096889;28;19908;-84
2021/05/29 05:55:44;;;;;;;;;;;12.80;95.90;;;;;;5097062;28;19931;-84
2021/05/29 05:58:09;;;;;;;;;;;12.70;96.10;;;;;;5096835;28;19916;-83
2021/05/29 06:00:35;;;;;;;;;;;12.80;96.00;;;;;;5095534;28;19959;-83
2021/05/29 06:03:00;;;;;;;;;;;12.90;95.80;;;;;;5097005;28;19965;-82
2021/05/29 06:05:26;;;;;;;;;;;12.90;95.60;;;;;;5098474;28;20360;-83
2021/05/29 06:07:52;;;;;;;;;;;12.80;95.50;;;;;;5096472;28;20272;-83
2021/05/29 06:10:19;;;;;;;;;;;12.90;95.40;;;;;;5095349;28;19934;-82
2021/05/29 06:12:48;;;;;;;;;;;12.90;95.10;;;;;;5095381;28;19909;-84
2021/05/29 06:18:29;;;;;;;;;;;13.00;94.60;;;;;;5097055;28;19934;-83
2021/05/29 06:20:55;;;;;;;;;;;13.00;94.40;;;;;;5095667;28;19919;-83
2021/05/29 06:23:20;;;;;;;;;;;13.00;94.20;;;;;;5095044;28;19959;-83
2021/05/29 06:25:46;;;;;;;;;;;13.00;93.90;;;;;;5095373;28;19959;-83
2021/05/29 06:28:11;;;;;;;;;;;13.10;93.90;;;;;;5096618;28;19915;-83
2021/05/29 06:30:37;;;;;;;;;;;13.10;93.90;;;;;;5094256;28;20347;-83
2021/05/29 06:33:03;;;;;;;;;;;13.10;93.80;;;;;;5094948;28;19909;-82
2021/05/29 06:35:29;;;;;;;;;;;13.20;93.80;;;;;;5095608;28;20383;-83
2021/05/29 06:37:55;;;;;;;;;;;13.20;93.80;;;;;;5096676;28;19913;-85
2021/05/29 06:40:22;;;;;;;;;;;13.20;93.60;;;;;;5095672;28;19919;-82
2021/05/29 06:42:47;;;;;;;;;;;13.20;93.80;;;;;;5098114;28;19998;-82
2021/05/29 06:45:13;;;;;;;;;;;13.30;93.60;;;;;;5096702;28;20415;-82
2021/05/29 06:47:39;;;;;;;;;;;13.30;93.80;;;;;;5097729;28;19934;-84
2021/05/29 06:50:08;;;;;;;;;;;13.40;93.50;;;;;;5096723;28;19912;-83
2021/05/29 06:52:36;;;;;;;;;;;13.30;93.00;;;;;;5097558;28;19908;-83
2021/05/29 07:00:30;;;;;;;;;;;13.40;92.90;;;;;;5098169;28;19915;-82
2021/05/29 07:02:56;;;;;;;;;;;13.40;92.80;;;;;;5096253;28;20010;-84
2021/05/29 07:05:21;;;;;;;;;;;13.50;92.90;;;;;;5097262;28;19908;-84
2021/05/29 07:07:47;;;;;;;;;;;13.50;92.90;;;;;;5098290;28;20022;-82
2021/05/29 07:10:12;;;;;;;;;;;13.50;92.90;;;;;;5097920;28;19908;-84
2021/05/29 07:12:38;;;;;;;;;;;13.50;92.70;;;;;;5097695;28;20003;-84
2021/05/29 07:15:04;;;;;;;;;;;13.50;92.60;;;;;;5098468;28;19913;-84
2021/05/29 07:17:32;;;;;;;;;;;13.60;92.60;;;;;;5098526;28;19943;-83
2021/05/29 07:19:58;;;;;;;;;;;13.60;92.60;;;;;;5095941;28;20526;-83
2021/05/29 07:22:24;;;;;;;;;;;13.60;92.40;;;;;;5098193;28;19946;-84
2021/05/29 07:24:49;;;;;;;;;;;13.60;92.20;;;;;;5098196;28;20365;-82
2021/05/29 07:27:15;;;;;;;;;;;13.70;92.00;;;;;;5097606;28;19933;-82
2021/05/29 07:29:41;;;;;;;;;;;13.70;92.10;;;;;;5096632;28;20245;-83
2021/05/29 07:32:06;;;;;;;;;;;13.70;92.10;;;;;;5098754;28;20372;-83
2021/05/29 07:34:32;;;;;;;;;;;13.70;92.20;;;;;;5097784;28;19916;-84
2021/05/29 07:36:57;;;;;;;;;;;13.70;92.30;;;;;;5097873;28;19912;-83
2021/05/29 07:39:23;;;;;;;;;;;13.70;92.30;;;;;;5096610;28;19919;-84
2021/05/29 07:41:48;;;;;;;;;;;13.80;92.40;;;;;;5097033;28;19908;-84
2021/05/29 07:44:14;;;;;;;;;;;13.70;92.30;;;;;;5098164;28;19915;-84
2021/05/29 07:46:39;;;;;;;;;;;13.80;92.30;;;;;;5097658;28;19916;-82
2021/05/29 07:49:05;;;;;;;;;;;13.80;92.10;;;;;;5098773;28;19912;-84
2021/05/29 07:51:35;;;;;;;;;;;13.80;92.20;;;;;;5097224;28;19915;-84
2021/05/29 07:54:00;;;;;;;;;;;13.90;92.20;;;;;;5097337;28;19982;-84
2021/05/29 07:56:26;;;;;;;;;;;13.90;92.10;;;;;;5096944;28;19912;-83
2021/05/29 07:58:53;;;;;;;;;;;13.90;92.00;;;;;;5099158;28;19908;-83
2021/05/29 08:01:20;;;;;;;;;;;13.90;91.90;;;;;;5097569;28;19908;-84
2021/05/29 08:03:45;;;;;;;;;;;14.00;91.90;;;;;;5099734;28;19938;-84
2021/05/29 08:06:16;;;;;;;;;;;14.00;91.60;;;;;;5099323;28;19908;-84
2021/05/29 08:08:43;;;;;;;;;;;14.10;91.50;;;;;;5097457;28;20288;-84
2021/05/29 08:11:16;;;;;;;;;;;14.10;91.40;;;;;;5098526;28;19912;-83
2021/05/29 08:13:42;;;;;;;;;;;14.10;91.40;;;;;;5099437;28;19908;-84
2021/05/29 08:16:07;;;;;;;;;;;14.10;91.50;;;;;;5097779;28;19991;-84
2021/05/29 08:18:33;;;;;;;;;;;14.10;91.70;;;;;;5097894;28;19912;-84
2021/05/29 08:20:58;;;;;;;;;;;14.10;92.00;;;;;;5097334;28;19922;-84
2021/05/29 08:23:24;;;;;;;;;;;14.20;92.00;;;;;;5101316;28;19908;-85
2021/05/29 08:25:49;;;;;;;;;;;14.20;92.00;;;;;;5103136;28;20277;-85
2021/05/29 08:28:15;;;;;;;;;;;14.20;91.70;;;;;;5103009;28;20360;-84
2021/05/29 08:30:40;;;;;;;;;;;14.30;91.70;;;;;;5103395;28;19908;-83
2021/05/29 08:33:06;;;;;;;;;;;14.30;91.50;;;;;;5100453;28;19966;-83
2021/05/29 08:35:32;;;;;;;;;;;14.30;91.50;;;;;;5099624;28;20331;-83
2021/05/29 08:37:57;;;;;;;;;;;14.40;91.40;;;;;;5098682;28;19947;-82
2021/05/29 08:40:23;;;;;;;;;;;14.40;91.40;;;;;;5098578;28;20292;-83
2021/05/29 08:42:48;;;;;;;;;;;14.50;91.50;;;;;;5097615;28;19908;-82
2021/05/29 08:45:15;;;;;;;;;;;14.50;91.70;;;;;;5099108;28;19934;-82
2021/05/29 08:47:41;;;;;;;;;;;14.50;91.70;;;;;;5099441;28;19908;-83
2021/05/29 08:50:07;;;;;;;;;;;14.50;90.80;;;;;;5098947;28;19955;-82
2021/05/29 08:52:37;;;;;;;;;;;14.60;90.20;;;;;;5098014;28;19908;-82
2021/05/29 08:55:10;;;;;;;;;;;14.60;90.50;;;;;;5098824;28;19961;-84
2021/05/29 08:57:36;;;;;;;;;;;14.70;90.90;;;;;;5096811;28;20000;-82
2021/05/29 09:00:03;;;;;;;;;;;14.70;91.00;;;;;;5096672;28;19912;-83
2021/05/29 09:02:29;;;;;;;;;;;14.70;91.10;;;;;;5097656;28;19912;-83
2021/05/29 09:04:59;;;;;;;;;;;14.80;90.80;;;;;;5098545;28;19908;-82
2021/05/29 09:07:25;;;;;;;;;;;14.70;90.50;;;;;;5098868;28;19908;-83
2021/05/29 09:10:11;;;;;;;;;;;14.80;90.40;;;;;;5096394;28;20330;-83
2021/05/29 09:12:36;;;;;;;;;;;14.80;90.50;;;;;;5099227;28;19953;-84
2021/05/29 09:15:02;;;;;;;;;;;14.90;90.40;;;;;;5097289;28;19912;-83
2021/05/29 09:17:28;;;;;;;;;;;14.90;90.60;;;;;;5097337;28;19919;-83
2021/05/29 09:20:14;;;;;;;;;;;14.90;90.90;;;;;;5095803;28;20344;-83
2021/05/29 09:22:53;;;;;;;;;;;14.90;91.00;;;;;;5097402;28;19943;-82
2021/05/29 09:25:23;;;;;;;;;;;14.90;91.00;;;;;;5097950;28;20272;-82
2021/05/29 09:27:53;;;;;;;;;;;14.90;91.10;;;;;;5097283;28;19916;-83
2021/05/29 09:30:34;;;;;;;;;;;15.00;90.80;;;;;;5098120;28;19909;-82
2021/05/29 09:33:12;;;;;;;;;;;15.00;90.80;;;;;;5096366;28;20011;-83
2021/05/29 09:35:37;;;;;;;;;;;14.90;90.20;;;;;;5096812;28;19908;-83
2021/05/29 09:38:03;;;;;;;;;;;14.90;90.50;;;;;;5098352;28;19916;-83
2021/05/29 09:40:29;;;;;;;;;;;14.90;90.70;;;;;;5097990;28;20360;-84
2021/05/29 09:42:59;;;;;;;;;;;14.90;90.90;;;;;;5098391;28;19999;-83
2021/05/29 09:45:27;;;;;;;;;;;14.90;90.70;;;;;;5098012;28;20379;-83
2021/05/29 09:48:08;;;;;;;;;;;14.90;90.80;;;;;;5098430;28;19973;-82
2021/05/29 09:50:33;;;;;;;;;;;15.00;90.90;;;;;;5096307;28;19908;-83
2021/05/29 09:52:59;;;;;;;;;;;14.90;91.10;;;;;;5096483;28;19931;-83
2021/05/29 09:55:36;;;;;;;;;;;14.90;91.10;;;;;;5097668;28;19908;-82
2021/05/29 09:58:01;;;;;;;;;;;14.90;91.00;;;;;;5096615;28;19951;-83
2021/05/29 10:00:41;;;;;;;;;;;14.90;90.50;;;;;;5095276;28;19991;-83
2021/05/29 10:03:06;;;;;;;;;;;14.90;90.60;;;;;;5096027;28;20273;-83
2021/05/29 10:05:33;;;;;;;;;;;15.00;90.90;;;;;;5098176;28;20002;-84
2021/05/29 10:07:59;;;;;;;;;;;15.00;91.00;;;;;;5097879;28;19954;-83
2021/05/29 10:10:25;;;;;;;;;;;15.00;91.00;;;;;;5096053;28;20292;-83
2021/05/29 10:12:51;;;;;;;;;;;15.10;90.60;;;;;;5097331;28;19908;-84
2021/05/29 10:15:17;;;;;;;;;;;15.20;90.60;;;;;;5098312;28;19934;-83
2021/05/29 10:18:03;;;;;;;;;;;15.20;90.60;;;;;;5096238;28;19958;-83
2021/05/29 10:20:31;;;;;;;;;;;15.30;90.40;;;;;;5095793;28;19931;-83
2021/05/29 10:22:57;;;;;;;;;;;15.30;90.50;;;;;;5095486;28;19916;-83
2021/05/29 10:25:23;;;;;;;;;;;15.30;90.20;;;;;;5096239;28;19973;-83
2021/05/29 10:27:53;;;;;;;;;;;15.30;90.40;;;;;;5097787;28;20002;-83
2021/05/29 10:30:19;;;;;;;;;;;15.40;90.10;;;;;;5095611;28;19947;-85
2021/05/29 10:33:05;;;;;;;;;;;15.50;90.20;;;;;;5097753;28;20384;-83
2021/05/29 10:35:34;;;;;;;;;;;15.50;89.10;;;;;;5082424;28;19951;-84
2021/05/29 10:37:59;;;;;;;;;;;15.50;89.00;;;;;;5096225;28;19916;-84
2021/05/29 10:40:25;;;;;;;;;;;15.50;88.30;;;;;;5096041;28;19915;-83
2021/05/29 10:43:02;;;;;;;;;;;15.60;88.20;;;;;;5095953;28;20289;-84
2021/05/29 10:45:28;;;;;;;;;;;15.50;86.20;;;;;;5097515;28;19908;-83
2021/05/29 10:48:04;;;;;;;;;;;15.60;89.40;;;;;;5096233;28;19912;-83
2021/05/29 10:51:03;;;;;;;;;;;15.50;89.00;;;;;;5096456;28;19912;-83
2021/05/29 10:53:36;;;;;;;;;;;15.60;89.10;;;;;;5096257;28;20004;-83
2021/05/29 10:56:23;;;;;;;;;;;15.60;89.30;;;;;;5096124;28;20002;-83
2021/05/29 10:58:52;;;;;;;;;;;15.50;88.20;;;;;;5097326;28;19919;-85
2021/05/29 11:01:17;;;;;;;;;;;15.60;88.40;;;;;;5095470;28;19914;-83
2021/05/29 11:03:43;;;;;;;;;;;15.60;88.80;;;;;;5096153;28;20006;-86
2021/05/29 11:06:29;;;;;;;;;;;15.70;88.20;;;;;;5096890;28;19963;-83
2021/05/29 11:08:57;;;;;;;;;;;15.60;88.20;;;;;;5095634;28;20295;-83
2021/05/29 11:11:48;;;;;;;;;;;15.70;89.10;;;;;;5095331;28;19993;-83
2021/05/29 11:14:21;;;;;;;;;;;15.60;88.30;;;;;;5096173;28;19909;-83
2021/05/29 11:16:50;;;;;;;;;;;15.60;87.60;;;;;;5097169;28;19916;-82
2021/05/29 11:19:28;;;;;;;;;;;15.60;88.00;;;;;;5097186;28;19909;-83
2021/05/29 11:22:04;;;;;;;;;;;15.60;88.30;;;;;;5095235;28;20332;-83
2021/05/29 11:24:30;;;;;;;;;;;15.50;88.60;;;;;;5095132;28;19936;-85
2021/05/29 11:26:56;;;;;;;;;;;15.60;88.90;;;;;;5095295;28;19912;-83
2021/05/29 11:29:21;;;;;;;;;;;15.50;89.70;;;;;;5095189;28;20422;-84
2021/05/29 11:31:48;;;;;;;;;;;15.60;89.10;;;;;;5095226;28;19931;-83
2021/05/29 11:34:14;;;;;;;;;;;15.60;89.50;;;;;;5095433;28;19909;-83
2021/05/29 11:36:42;;;;;;;;;;;15.60;88.50;;;;;;5097049;28;19916;-83
2021/05/29 11:39:12;;;;;;;;;;;15.60;88.30;;;;;;5115577;22;19963;-87
2021/05/29 11:41:38;;;;;;;;;;;15.70;87.80;;;;;;5113631;28;19915;-86
2021/05/29 11:44:05;;;;;;;;;;;15.80;88.90;;;;;;5112129;28;19908;-86
2021/05/29 11:46:31;;;;;;;;;;;15.70;88.20;;;;;;5113787;28;19908;-86
2021/05/29 11:49:00;;;;;;;;;;;15.70;88.50;;;;;;5111854;28;19990;-86
2021/05/29 11:51:27;;;;;;;;;;;15.80;88.10;;;;;;5112279;28;19939;-86
2021/05/29 11:53:54;;;;;;;;;;;15.90;87.60;;;;;;5112396;28;19908;-86
2021/05/29 11:56:28;;;;;;;;;;;15.90;87.00;;;;;;5112168;28;19915;-86
2021/05/29 11:58:54;;;;;;;;;;;15.90;87.40;;;;;;5110976;28;20045;-86
2021/05/29 12:01:21;;;;;;;;;;;15.90;88.20;;;;;;5113470;28;19949;-86
2021/05/29 12:03:49;;;;;;;;;;;15.90;86.40;;;;;;5113374;28;19977;-85
2021/05/29 12:06:34;;;;;;;;;;;15.90;86.10;;;;;;5112141;28;19915;-86
2021/05/29 12:09:00;;;;;;;;;;;15.90;85.60;;;;;;5111342;28;19908;-86
2021/05/29 12:11:29;;;;;;;;;;;16.00;85.30;;;;;;5113378;28;19908;-86
2021/05/29 12:13:56;;;;;;;;;;;16.10;85.80;;;;;;5113772;28;19908;-85
2021/05/29 12:16:26;;;;;;;;;;;16.20;86.10;;;;;;5111990;28;19943;-86
2021/05/29 12:18:51;;;;;;;;;;;16.20;86.60;;;;;;5111791;28;19916;-86
2021/05/29 12:21:17;;;;;;;;;;;16.30;86.10;;;;;;5112909;28;20026;-86
2021/05/29 12:23:53;;;;;;;;;;;16.30;86.30;;;;;;5112006;28;19912;-86
2021/05/29 12:26:20;;;;;;;;;;;16.50;86.70;;;;;;5112253;28;19911;-86
2021/05/29 12:28:45;;;;;;;;;;;16.50;85.20;;;;;;5111663;28;19912;-86
2021/05/29 12:31:11;;;;;;;;;;;16.60;85.00;;;;;;5111593;28;19961;-86
2021/05/29 12:33:37;;;;;;;;;;;16.50;84.60;;;;;;5111696;28;19908;-86
2021/05/29 12:36:07;;;;;;;;;;;16.50;85.80;;;;;;5111850;28;19918;-87
2021/05/29 12:38:33;;;;;;;;;;;16.50;84.30;;;;;;5111658;28;20360;-86
2021/05/29 12:40:58;;;;;;;;;;;16.50;84.00;;;;;;5111181;28;19911;-86
2021/05/29 12:43:25;;;;;;;;;;;16.70;84.30;;;;;;5113100;28;19912;-86
2021/05/29 12:45:51;;;;;;;;;;;16.80;84.20;;;;;;5111930;28;20324;-86
2021/05/29 12:48:16;;;;;;;;;;;16.80;84.50;;;;;;5112999;28;19969;-86
2021/05/29 12:53:33;;;;;;;;;;;16.80;85.40;;;;;;5112979;28;19915;-88
2021/05/29 12:56:15;;;;;;;;;;;16.70;84.50;;;;;;5111562;28;19953;-86
2021/05/29 12:58:55;;;;;;;;;;;16.60;83.60;;;;;;5111947;28;20284;-86
2021/05/29 13:02:05;;;;;;;;;;;16.50;84.00;;;;;;5112708;28;19930;-86
2021/05/29 13:10:39;;;;;;;;;;;16.60;84.30;;;;;;5115788;28;19953;-86
2021/05/29 13:12:38;;;;;;;;;;;16.60;85.00;;;;;;5108717;28;19908;-86
2021/05/29 13:15:14;;;;;;;;;;;16.50;83.40;;;;;;5115297;28;19912;-87
2021/05/29 13:17:39;;;;;;;;;;;16.50;83.80;;;;;;5115432;28;20017;-86
2021/05/29 13:20:07;;;;;;;;;;;16.50;84.40;;;;;;5114369;28;19982;-86
2021/05/29 13:22:37;;;;;;;;;;;16.50;84.70;;;;;;5116518;28;19912;-86
2021/05/29 13:25:11;;;;;;;;;;;16.60;84.50;;;;;;5116483;28;19908;-86
2021/05/29 13:27:41;;;;;;;;;;;16.60;84.40;;;;;;5115447;28;19908;-86
2021/05/29 13:30:16;;;;;;;;;;;16.60;85.30;;;;;;5114647;28;20355;-86
2021/05/29 13:32:42;;;;;;;;;;;16.60;85.40;;;;;;5115712;28;19908;-86
2021/05/29 13:35:08;;;;;;;;;;;16.60;84.50;;;;;;5115149;28;19998;-86
2021/05/29 13:37:34;;;;;;;;;;;16.60;84.60;;;;;;5116536;27;19911;-86
2021/05/29 13:39:59;;;;;;;;;;;16.60;85.10;;;;;;5115900;28;19916;-86
2021/05/29 13:42:25;;;;;;;;;;;16.70;84.30;;;;;;5115857;28;20021;-86
2021/05/29 13:44:50;;;;;;;;;;;16.70;83.90;;;;;;5116745;28;19908;-87
2021/05/29 13:47:16;;;;;;;;;;;16.80;83.60;;;;;;5116239;28;19930;-86
2021/05/29 13:49:43;;;;;;;;;;;16.90;83.40;;;;;;5114042;28;20006;-86
2021/05/29 13:52:09;;;;;;;;;;;16.90;83.20;;;;;;5116140;28;19912;-86
2021/05/29 13:54:34;;;;;;;;;;;17.00;82.70;;;;;;5114733;28;19916;-86
2021/05/29 13:57:02;;;;;;;;;;;17.00;83.00;;;;;;5115887;28;20359;-86
2021/05/29 13:59:28;;;;;;;;;;;17.10;83.30;;;;;;5114663;28;19931;-86
2021/05/29 14:01:53;;;;;;;;;;;17.10;82.60;;;;;;5116439;28;19916;-86
2021/05/29 14:04:21;;;;;;;;;;;17.30;82.70;;;;;;5115303;28;20402;-87
2021/05/29 14:06:47;;;;;;;;;;;17.40;82.70;;;;;;5116258;28;19999;-86
2021/05/29 14:09:12;;;;;;;;;;;17.60;81.00;;;;;;5114041;28;19985;-86
2021/05/29 14:11:41;;;;;;;;;;;17.80;80.20;;;;;;5115602;28;19932;-86
2021/05/29 14:14:07;;;;;;;;;;;18.00;78.80;;;;;;5115630;28;19908;-86
2021/05/29 14:16:33;;;;;;;;;;;18.30;76.90;;;;;;5115330;27;19908;-87
2021/05/29 14:18:58;;;;;;;;;;;18.40;76.20;;;;;;5113835;28;19941;-87
2021/05/29 14:21:24;;;;;;;;;;;18.60;75.10;;;;;;5113771;28;20356;-87
2021/05/29 14:23:50;;;;;;;;;;;18.90;74.40;;;;;;5114430;28;19951;-86
2021/05/29 14:26:16;;;;;;;;;;;18.90;74.40;;;;;;5114937;28;19908;-87
2021/05/29 14:28:42;;;;;;;;;;;19.10;74.40;;;;;;5113435;28;20352;-87
2021/05/29 14:31:08;;;;;;;;;;;19.50;74.00;;;;;;5112403;28;19908;-87
2021/05/29 14:33:34;;;;;;;;;;;19.60;72.80;;;;;;5113355;28;19916;-87
2021/05/29 14:36:00;;;;;;;;;;;20.00;72.90;;;;;;5113352;28;19914;-88